Terminal Aerodrome Forecast
Issued by NWS Goodland, KS

Home | Current Version | Previous Version | Text Only | Print | Product List | Glossary On
Versions: 1 2 3 4 5 6 7 8 9 10 11 12 13 14 15 16 17
405
FTUS43 KGLD 260445 AAC
TAFGLD
TAF AMD
KGLD 260445Z 2605/2624 02015G23KT P6SM BKN008 OVC025
     FM260700 35013KT P6SM OVC035
     FM261400 34015G23KT P6SM SCT110=

USA.gov is the U.S. government's official web portal to all federal, state and local government web resources and services.